Van Deusenville, Massachusetts
Current Conditions -  °F | °C
As of 4:54 AM on Friday 28 Nov 2014 (Local Time) from KPSF Reporting Station
Light Snow Light Snow  
Wind Chill: 14°   Ceiling: 1100
Heat Index: 25°   Visibility: 6mi
Dew Point: 22°   Wind: 12mph
Humidity: 88%   Direction: 290°WNW
Pressure: 29.98"   Gusts: NA
Location:  42.1779°N, 73.3332°W
Report Text: KPSF 280954Z AUTO 29010KT 6SM -SN BR OVC011 M04/M06 A2998 RMK AO2 SNE05B43 SLP167 P0000 I1000 T10391056
Loading
Personal Weather Stations






























Interactive Weather Map New forecast layout! Learn more

10-Day Weather Forecast

Advertisements
Track Severe Weather on mobile